Tiempo atmosférico en la estación meteorológica de Villanueva De Los Infantes, Ciudad Real (870 m.)



Fecha
DESCASC
Temp. máxima en grados centígrados (hora)
DESCASC
Temp. mínima en grados centígrados (hora)
DESCASC
Temp. media en grados centígrados
DESCASC
Racha de viento máxima en m/sg (hora)
DESCASC
Velocidad máxima media en intervalos de 10 minutos(hora)
DESCASC
Precipitaciones diarias en mm
DESCASC
Precipitaciones de 00:00 a 06:00 en mm
DESCASC
Precipitaciones de 06:00 a 12:00 en mm
DESCASC
Precipitaciones de 12:00 a 18:00 en mm
DESCASC
Precipitaciones de 18:00 a 24:00 en mm
DESCASC
19-09-2019 28.4 (16:10) 15.3 (07:20) 21.8 8.89 (16:40) 4.72 (00:10) 0 0 0 0 0
18-09-2019 26.7 (17:10) 14.4 (08:00) 20.6 7.22 (05:00) 6.11 (05:10) 0 0 0 0 0
17-09-2019 29.9 (15:30) 16.9 (00:00) 23.4 15.56 (16:50) 11.67 (16:50) 0.2 0 0 0 0.2
16-09-2019 26.6 (17:50) 15 (00:00) 20.8 5.83 (23:20) 5 (23:20) 0 0 0 0 0
15-09-2019 -- (--) -- (--) -- -- (--) -- (--) -- -- -- 0 0
14-09-2019 -- (--) -- (--) -- -- (--) -- (--) -- -- -- 0 --
13-09-2019 -- (--) -- (--) -- -- (--) -- (--) -- -- -- 6 0
12-09-2019 -- (--) -- (--) -- -- (--) -- (--) -- 0 -- 5.4 0.2
11-09-2019 21 (14:20) 9.2 (00:00) 15.1 15 (14:40) 11.39 (18:20) 0 0 0 0 0
10-09-2019 20.8 (00:00) 10.5 (23:50) 15.6 16.11 (23:40) 10 (20:50) 0 0 0 0 0
09-09-2019 27.9 (16:00) 14.6 (04:20) 21.3 13.06 (17:00) 8.33 (18:40) 0 0 0 0 0
08-09-2019 27.1 (15:40) 16.6 (00:00) 21.9 11.67 (15:50) 8.61 (16:00) 0 0 0 0 0
07-09-2019 29.5 (17:10) 15.5 (00:00) 22.5 10.28 (19:40) 7.78 (19:50) 0 0 0 0 0
06-09-2019 27.3 (17:30) 11.7 (00:00) 19.5 9.44 (01:40) 7.5 (01:40) 0 0 0 0 0
05-09-2019 28.6 (16:40) 16.7 (00:00) 22.7 10.83 (17:30) 7.22 (20:50) 0 0 0 0 0
04-09-2019 32.1 (16:00) 18.5 (00:00) 25.3 9.17 (17:50) 5 (17:50) 0 0 0 0 0
03-09-2019 31.6 (14:20) 17.8 (00:00) 24.7 6.39 (17:30) 4.17 (18:00) 0 0 0 0 0
02-09-2019 31.5 (14:20) 19.9 (00:00) 25.7 11.67 (17:20) 8.06 (18:10) 0 0 0 0 0
01-09-2019 33.4 (17:20) 18.4 (00:00) 25.9 10.28 (15:20) 6.94 (19:10) 0 0 0 0 0
31-08-2019 32.4 (17:40) 16.3 (00:00) 24.4 5.56 (15:30) 5 (23:10) 0 0 0 0 0
30-08-2019 33.5 (16:50) 17.7 (00:00) 25.6 21.11 (21:00) 10.28 (19:50) 1.2 0 0 0 1.2
29-08-2019 31.8 (17:20) 18.1 (00:00) 24.9 6.11 (11:40) 3.61 (00:50) 0 0 0 0 0
28-08-2019 -- (--) -- (--) -- -- (--) -- (--) -- -- -- 0 0
27-08-2019 -- (--) -- (--) -- -- (--) -- (--) -- 0 0 0 --
26-08-2019 30.9 (17:20) 14.8 (00:00) 22.8 15 (20:40) 7.5 (22:40) 21 0 0 0 21
25-08-2019 31.9 (18:10) 17.6 (00:00) 24.8 11.67 (16:40) 7.5 (18:30) 0 0 0 0 0
24-08-2019 32.2 (16:50) 16.3 (00:00) 24.3 9.17 (15:20) 5.83 (20:00) -- -- 0 0 0
23-08-2019 -- (--) -- (--) -- -- (--) -- (--) -- -- -- 0 0
22-08-2019 -- (--) -- (--) -- -- (--) -- (--) -- 0 -- 0 --
21-08-2019 28.4 (13:00) 17.6 (00:00) 23 15.28 (14:50) 9.44 (18:10) 14.2 0 0 14.2 0

Gráficas

Temp. máximas Temp. mínimas Temp. medias Precipitaciones Rachas de viento máximas Velocidades máximas media en intervalos de 10 minutos

Datos horarios

Fecha y hora oficial Temperatura (ºC) Velocidad del viento (km/h) Dirección del viento Racha (km/h) Dirección de racha Precipitación (mm) Presión (hPa) Tendencia (hPa) Humedad (%)
2019-09-19 23:00:00 19.6 7 Sur 13 Sur 0 -- -- 54
2019-09-19 22:00:00 21.2 5 Sudoeste 12 Sudoeste 0 -- -- 44
2019-09-19 21:00:00 22.5 11 Sudoeste 17 Sudoeste 0 -- -- 38
2019-09-19 20:00:00 24.7 8 Sudoeste 22 Sudoeste 0 -- -- 32
2019-09-19 19:00:00 26.3 11 Sudoeste 25 Sudoeste 0 -- -- 32
2019-09-19 18:00:00 28 10 Sur 23 Sudoeste 0 -- -- 31
2019-09-19 17:00:00 27.8 10 Oeste 32 Sudoeste 0 -- -- 32
2019-09-19 16:00:00 28.2 15 Sudoeste 31 Sudoeste 0 -- -- 36
2019-09-19 15:00:00 27.8 15 Sudoeste 25 Sudoeste 0 -- -- 39
2019-09-19 14:00:00 26.5 7 Sur 22 Sudoeste 0 -- -- 47
2019-09-19 13:00:00 25.1 13 Sudoeste 20 Sudoeste 0 -- -- 49
2019-09-19 12:00:00 23.2 6 Sudoeste 16 Sudoeste 0 -- -- 51
2019-09-19 11:00:00 20.5 10 Sudoeste 18 Sur 0 -- -- 64
2019-09-19 10:00:00 18.4 12 Sur 18 Sur 0 -- -- 73
2019-09-19 09:00:00 16.8 5 Sur 9 Sur 0 -- -- 80
2019-09-19 08:00:00 15.5 5 Sur 9 Sur 0 -- -- 81
2019-09-19 07:00:00 15.5 5 Sur 10 Sudeste 0 -- -- 79
2019-09-19 06:00:00 16.1 6 Sur 11 Sudeste 0 -- -- 78
2019-09-19 05:00:00 16.1 7 Sur 12 Sudeste 0 -- -- 77
2019-09-19 04:00:00 16.5 5 Sur 8 Sur 0 -- -- 74
2019-09-19 03:00:00 17.2 4 Sur 9 Sudeste 0 -- -- 72
2019-09-19 02:00:00 17.7 5 Sur 9 Sur 0 -- -- 71
2019-09-19 01:00:00 19 9 Sudeste 19 Este 0 -- -- 64
2019-09-19 00:00:00 19.6 18 Este 20 Este 0 -- -- 63
2019-09-18 23:00:00 20 16 Este 22 Este 0 -- -- 63
2019-09-18 22:00:00 20.7 17 Este 21 Este 0 -- -- 60
2019-09-18 21:00:00 21.4 8 Nordeste 13 Norte 0 -- -- 59
2019-09-18 20:00:00 23.8 7 Norte 12 Norte 0 -- -- 49
2019-09-18 19:00:00 25 7 Norte 13 Noroeste 0 -- -- 44
2019-09-18 18:00:00 26.2 3 Oeste 14 Oeste 0 -- -- 42
2019-09-18 17:00:00 26.1 7 Norte 16 Noroeste 0 -- -- 43
2019-09-18 16:00:00 25.6 3 Oeste 17 Norte 0 -- -- 44
2019-09-18 15:00:00 25.8 11 Noroeste 18 Oeste 0 -- -- 46
2019-09-18 14:00:00 24.6 3 Oeste 15 Noroeste 0 -- -- 49
2019-09-18 13:00:00 23.5 6 Norte 13 Norte 0 -- -- 54
2019-09-18 12:00:00 22.4 4 Oeste 10 Oeste 0 -- -- 57
2019-09-18 11:00:00 20.2 6 Noroeste 10 Oeste 0 -- -- 65
2019-09-18 10:00:00 17.6 3 Sudoeste 7 Sur 0 -- -- 73
2019-09-18 09:00:00 15.8 0 Calma 9 Sur 0 -- -- 78
2019-09-18 08:00:00 14.4 6 Sur 9 Sudeste 0 -- -- 79
2019-09-18 07:00:00 14.8 6 Sur 19 Este 0 -- -- 77
2019-09-18 06:00:00 14.7 13 Este 25 Este 0 -- -- 78
2019-09-18 05:00:00 14.5 22 Este 26 Este 0 -- -- 83
2019-09-18 04:00:00 14.9 16 Este 21 Este 0 -- -- 81
2019-09-18 03:00:00 15.8 13 Nordeste 18 Nordeste 0 -- -- 79
2019-09-18 02:00:00 16.8 3 Norte 12 Sur 0 -- -- 72
2019-09-18 01:00:00 16.9 6 Sur 12 Sudeste 0 -- -- 71
2019-09-18 00:00:00 17.1 8 Sudeste 17 Sudeste 0 -- -- 70
2019-09-17 23:00:00 17.3 9 Sudeste 23 Este 0 -- -- 69
2019-09-17 22:00:00 17.9 16 Sudeste 31 Este 0 -- -- 67
2019-09-17 21:00:00 18 24 Este 29 Este 0 -- -- 68
2019-09-15 18:00:00 -- -- -- -- -- -- -- -- --
2019-09-15 17:00:00 -- -- -- -- -- -- -- -- --
2019-09-15 16:00:00 -- -- -- -- -- -- -- -- --
2019-09-15 15:00:00 -- -- -- -- -- -- -- -- --
2019-09-15 14:00:00 24 5 Noroeste 14 Sur 0 -- -- 62
2019-09-15 13:00:00 22.8 8 Oeste 17 Sudoeste 0 -- -- 70
2019-09-15 12:00:00 20.8 4 Sudoeste 9 Sudoeste 0 -- -- 78
2019-09-15 11:00:00 19.4 5 Oeste 8 Oeste 0 -- -- 83
2019-09-15 10:00:00 17.9 0 Calma 15 Este 0 -- -- 89
2019-09-15 09:00:00 16.1 13 Este -- -- -- -- -- 94
2019-09-15 08:00:00 -- -- -- -- -- -- -- -- --
2019-09-15 07:00:00 -- -- -- -- -- -- -- -- --
2019-09-15 06:00:00 -- -- -- -- -- -- -- -- --
2019-09-15 05:00:00 -- -- -- -- -- -- -- -- --
2019-09-15 04:00:00 -- -- -- -- -- -- -- -- --
2019-09-15 03:00:00 -- -- -- -- -- -- -- -- --
2019-09-15 02:00:00 -- -- -- -- -- -- -- -- --
2019-09-15 01:00:00 -- -- -- -- -- -- -- -- --
2019-09-15 00:00:00 -- -- -- -- -- -- -- -- --
2019-09-14 23:00:00 -- -- -- -- -- -- -- -- --
2019-09-14 22:00:00 16.7 28 Este 40 Este 0 -- -- 91
2019-09-14 21:00:00 17 31 Este 38 Este 0 -- -- 90
2019-09-14 20:00:00 18.2 30 Este 40 Este 0 -- -- 85
2019-09-14 19:00:00 19.2 35 Este 45 Este 0 -- -- 81
2019-09-14 18:00:00 20.2 35 Este 46 Este 0 -- -- 78
2019-09-14 17:00:00 20.9 35 Este 48 Este 0 -- -- 77
2019-09-14 16:00:00 20.9 35 Este 42 Este 0 -- -- 76
2019-09-14 15:00:00 19.9 31 Este 37 Este 0 -- -- 77
2019-09-14 14:00:00 18.5 24 Este 44 Este 0 -- -- 79
2019-09-14 13:00:00 17.8 34 Este 44 Este 0 -- -- 85
2019-09-14 12:00:00 15.6 30 Este 41 Este 0.2 -- -- 88
2019-09-14 11:00:00 -- -- -- -- -- -- -- -- --
2019-09-14 10:00:00 -- -- -- -- -- -- -- -- --
2019-09-14 09:00:00 -- -- -- -- -- -- -- -- --
2019-09-14 08:00:00 -- -- -- -- -- -- -- -- --
2019-09-14 07:00:00 -- -- -- -- -- -- -- -- --
2019-09-14 06:00:00 -- -- -- -- -- -- -- -- --
2019-09-14 05:00:00 -- -- -- -- -- -- -- -- --
2019-09-14 04:00:00 -- -- -- -- -- -- -- -- --
2019-09-14 03:00:00 -- -- -- -- -- -- -- -- --
2019-09-14 02:00:00 -- -- -- -- -- -- -- -- --
2019-09-14 01:00:00 -- -- -- -- -- -- -- -- --
2019-09-14 00:00:00 -- -- -- -- -- -- -- -- --
2019-09-13 23:00:00 -- -- -- -- -- -- -- -- --
2019-09-13 22:00:00 16.5 35 Este 43 Este 0 -- -- 85
2019-09-13 21:00:00 16.6 34 Este 51 Este 0 -- -- 92
2019-09-13 20:00:00 16.8 29 Este 45 Este 0 -- -- 90
2019-09-13 19:00:00 16.4 29 Este 42 Este 0 -- -- 90
2019-09-13 18:00:00 15.7 27 Este 44 Este 5.8 -- -- 83
2019-09-13 17:00:00 16.6 37 Este 51 Este 0 -- -- 86
2019-09-13 16:00:00 18.8 39 Este 54 Este 0 -- -- 78
2019-09-13 15:00:00 18.5 40 Este 62 Este 0 -- -- 79
2019-09-13 14:00:00 17.2 46 Este 61 Este 0 -- -- 82
2019-09-13 13:00:00 15.2 42 Este 58 Este 0.2 -- -- 91
2019-09-13 12:00:00 13.2 19 Este 33 Este 0.2 -- -- 93
2019-09-13 11:00:00 12.5 25 Este -- -- -- -- -- 90
2019-09-13 10:00:00 -- -- -- -- -- -- -- -- --
2019-09-13 09:00:00 -- -- -- -- -- -- -- -- --
2019-09-13 08:00:00 -- -- -- -- -- -- -- -- --
2019-09-13 07:00:00 -- -- -- -- -- -- -- -- --
2019-09-13 06:00:00 -- -- -- -- -- -- -- -- --
2019-09-13 05:00:00 -- -- -- -- -- -- -- -- --
2019-09-13 04:00:00 -- -- -- -- -- -- -- -- --
2019-09-13 03:00:00 -- -- -- -- -- -- -- -- --
2019-09-13 02:00:00 13.7 28 Sudeste 54 Este 0.6 -- -- 87
2019-09-13 01:00:00 13.9 25 Sudeste 78 Este 0 -- -- 82
2019-09-13 00:00:00 14.5 40 Este 62 Este 0.2 -- -- 83
2019-09-12 23:00:00 15.3 24 Este 51 Este 0 -- -- 77
2019-09-12 22:00:00 15.9 42 Este 60 Este 0 -- -- 71
2019-09-12 21:00:00 16.1 34 Este 46 Este 0 -- -- 74
2019-09-12 20:00:00 16.5 28 Este 46 Este 0 -- -- 75
2019-09-12 19:00:00 16.4 34 Este 54 Este 0 -- -- 76
2019-09-12 18:00:00 16.5 33 Este 48 Este 0 -- -- 80
2019-09-12 17:00:00 17.4 35 Este 47 Este 0 -- -- 84
2019-09-12 16:00:00 16 21 Este 44 Este 2.4 -- -- 91
2019-09-12 15:00:00 15.6 21 Sudeste 57 Este 3 -- -- 85
2019-09-12 14:00:00 16.2 32 Este 55 Este 0 -- -- 84
2019-09-12 13:00:00 16.5 31 Este 51 Este 0 -- -- 80
2019-09-12 12:00:00 15.5 37 Este 63 Este 0 -- -- 83
2019-09-12 11:00:00 15.1 48 Este 69 Este 0 -- -- 84
2019-09-12 10:00:00 14.7 38 Este 51 Este 0.2 -- -- 88
2019-09-12 09:00:00 14.3 33 Este -- -- -- -- -- 89
2019-09-12 08:00:00 -- -- -- -- -- -- -- -- --
2019-09-12 07:00:00 -- -- -- -- -- -- -- -- --
2019-09-12 06:00:00 13.3 21 Nordeste 33 Nordeste 0 -- -- 80
2019-09-12 05:00:00 13.2 17 Nordeste 25 Nordeste 0 -- -- 83
2019-09-12 04:00:00 13.4 18 Nordeste 31 Nordeste 0 -- -- 81
2019-09-12 03:00:00 12.1 17 Este 22 Este 0 -- -- 79
2019-09-12 02:00:00 11.4 11 Este 27 Este 0 -- -- 77
2019-09-12 01:00:00 11.8 22 Este 32 Este 0 -- -- 76
2019-09-12 00:00:00 12.2 23 Este 35 Este 0 -- -- 73
2019-09-11 23:00:00 12.7 22 Este 38 Este 0 -- -- 73
2019-09-11 22:00:00 13.6 30 Este 48 Este 0 -- -- 70
2019-09-11 21:00:00 14.8 35 Este 53 Este 0 -- -- 66
2019-09-11 20:00:00 16.4 35 Este 52 Este 0 -- -- 58
2019-09-11 19:00:00 16.9 40 Este 54 Este 0 -- -- 57
2019-09-11 18:00:00 19.3 35 Este 50 Este 0 -- -- 48
2019-09-11 17:00:00 19.6 33 Este 51 Este 0 -- -- 46
2019-09-11 16:00:00 20.5 35 Este 50 Este 0 -- -- 43
2019-09-11 15:00:00 20.7 35 Este 54 Este 0 -- -- 40
2019-09-11 14:00:00 19.2 23 Nordeste 47 Este 0 -- -- 44
2019-09-11 13:00:00 17.8 34 Nordeste 48 Nordeste 0 -- -- 48
2019-09-11 12:00:00 16 30 Nordeste 43 Nordeste 0 -- -- 53
2019-09-11 11:00:00 14.8 30 Nordeste 42 Norte 0 -- -- 58
2019-09-11 10:00:00 12.5 24 Norte 39 Nordeste 0 -- -- 65
2019-09-11 09:00:00 10 14 Norte 23 Norte 0 -- -- 72
2019-09-11 08:00:00 9.3 11 Norte 23 Norte 0 -- -- 73
2019-09-11 07:00:00 10.1 15 Norte 31 Nordeste 0 -- -- 69
2019-09-11 06:00:00 10.4 18 Norte 33 Nordeste 0 -- -- 68
2019-09-11 05:00:00 10.6 24 Norte 39 Norte 0 -- -- 68
2019-09-11 04:00:00 10.3 14 Norte 27 Nordeste 0 -- -- 71
2019-09-11 03:00:00 10.7 21 Norte 33 Norte 0 -- -- 70
2019-09-11 02:00:00 10.7 15 Norte 24 Norte 0 -- -- 73
2019-09-11 01:00:00 10.1 9 Norte 22 Norte 0 -- -- 77
2019-09-11 00:00:00 10.8 21 Nordeste 58 Nordeste 0 -- -- 67
2019-09-10 23:00:00 13.6 22 Nordeste 45 Norte 0 -- -- 54
2019-09-10 22:00:00 14.1 34 Nordeste 54 Nordeste 0 -- -- 51
2019-09-10 21:00:00 15.3 30 Nordeste 53 Norte 0 -- -- 44
2019-09-10 20:00:00 17.1 34 Nordeste 47 Nordeste 0 -- -- 35
2019-09-10 19:00:00 18.9 27 Norte 41 Norte 0 -- -- 31
2019-09-10 18:00:00 19.5 25 Norte 44 Norte 0 -- -- 31
2019-09-10 17:00:00 19.4 26 Norte 48 Nordeste 0 -- -- 30
2019-09-10 16:00:00 19.8 26 Norte 44 Noroeste 0 -- -- 24
2019-09-10 15:00:00 19.3 24 Norte 46 Noroeste 0 -- -- 28
2019-09-10 14:00:00 18.9 21 Norte 44 Norte 0 -- -- 32
2019-09-10 13:00:00 18.5 18 Norte 35 Nordeste 0 -- -- 40
2019-09-10 12:00:00 16.9 22 Norte 33 Norte 0 -- -- 48
2019-09-10 11:00:00 15.9 20 Norte 32 Norte 0 -- -- 52
2019-09-10 10:00:00 14.9 17 Norte 30 Norte 0 -- -- 57
2019-09-10 09:00:00 13.7 12 Noroeste 21 Noroeste 0 -- -- 60
2019-09-10 08:00:00 13.3 10 Oeste 17 Oeste 0 -- -- 56
2019-09-10 07:00:00 14.2 12 Oeste 24 Sudoeste 0 -- -- 52
2019-09-10 06:00:00 15 14 Oeste 24 Oeste 0 -- -- 51
2019-09-10 05:00:00 15.7 12 Oeste 18 Oeste 0 -- -- 49
2019-09-10 04:00:00 17.1 14 Oeste 26 Oeste 0 -- -- 44
2019-09-10 03:00:00 18.1 10 Noroeste 21 Oeste 0 -- -- 43
2019-09-10 02:00:00 19.4 12 Oeste 24 Oeste 0 -- -- 41
2019-09-10 01:00:00 20.3 17 Oeste 26 Noroeste 0 -- -- 40
2019-09-10 00:00:00 20.8 13 Oeste 25 Oeste 0 -- -- 39
2019-09-09 23:00:00 21.2 13 Oeste 19 Oeste 0 -- -- 37
2019-09-09 22:00:00 22.3 8 Oeste 18 Noroeste 0 -- -- 33
2019-09-09 21:00:00 23.6 14 Noroeste 32 Oeste 0 -- -- 32
2019-09-09 20:00:00 25.7 21 Noroeste 39 Oeste 0 -- -- 29
2019-09-09 19:00:00 26.8 28 Oeste 45 Oeste 0 -- -- 27
2019-09-09 18:00:00 27.7 22 Oeste 43 Oeste 0 -- -- 26
2019-09-09 17:00:00 27.9 23 Oeste 47 Oeste 0 -- -- 27
2019-09-09 16:00:00 27.9 18 Oeste 32 Noroeste 0 -- -- 27
2019-09-09 15:00:00 26.5 17 Noroeste 31 Oeste 0 -- -- 32
2019-09-09 14:00:00 26.4 17 Oeste 30 Oeste 0 -- -- 37
2019-09-09 13:00:00 24.7 18 Sudoeste 31 Sudoeste 0 -- -- 49
2019-09-09 12:00:00 22.9 15 Sudoeste 27 Sudoeste 0 -- -- 56
2019-09-09 11:00:00 20.2 14 Sudoeste 27 Sudoeste 0 -- -- 66
2019-09-09 10:00:00 17.9 12 Sudoeste 21 Sudoeste 0 -- -- 74
2019-09-09 09:00:00 15.9 13 Sur 19 Sudoeste 0 -- -- 82
2019-09-09 08:00:00 14.8 12 Sur 20 Sur 0 -- -- 84
2019-09-09 07:00:00 15 12 Sur 18 Sur 0 -- -- 83
2019-09-09 06:00:00 15.2 13 Sur 19 Sur 0 -- -- 82
2019-09-09 05:00:00 15.2 11 Sur 17 Sur 0 -- -- 81
2019-09-09 04:00:00 14.8 7 Sur 12 Sur 0 -- -- 79
2019-09-09 03:00:00 15.3 3 Sur 10 Sur 0 -- -- 78
2019-09-09 02:00:00 16.3 5 Sur 16 Sur 0 -- -- 77
2019-09-09 01:00:00 17.1 10 Sur 16 Sur 0 -- -- 74
2019-09-09 00:00:00 17.8 10 Sur 18 Sur 0 -- -- 73
2019-09-08 23:00:00 18.7 11 Sur 24 Sur 0 -- -- 68
2019-09-08 22:00:00 19.6 7 Sur 18 Sur 0 -- -- 61
2019-09-08 21:00:00 20.5 8 Sur 17 Oeste 0 -- -- 54
2019-09-08 20:00:00 21 15 Sudoeste 28 Oeste 0 -- -- 53
2019-09-08 19:00:00 21.5 21 Oeste 33 Oeste 0 -- -- 53
2019-09-08 18:00:00 24.7 4 Sudeste 15 Este 0 -- -- 40
2019-09-08 17:00:00 24.1 11 Este 36 Nordeste 0 -- -- 37
2019-09-08 16:00:00 26 31 Este 42 Este 0 -- -- 40
2019-09-08 15:00:00 26.3 5 Norte 18 Oeste 0 -- -- 40
2019-09-08 14:00:00 25.7 4 Oeste 12 Nordeste 0 -- -- 45
2019-09-08 13:00:00 24.3 6 Nordeste 15 Norte 0 -- -- 52
2019-09-08 12:00:00 22.7 3 Oeste 13 Norte 0 -- -- 58
2019-09-08 11:00:00 20.8 5 Sudoeste 14 Sur 0 -- -- 65
2019-09-08 10:00:00 18.7 8 Sur 14 Sur 0 -- -- 73
2019-09-08 09:00:00 17.2 8 Sur 13 Sur 0 -- -- 81
2019-09-08 08:00:00 16.6 5 Sudoeste 15 Sudoeste 0 -- -- 82
2019-09-08 07:00:00 17.2 9 Sur 21 Sur 0 -- -- 80
2019-09-08 06:00:00 17.9 12 Sudoeste 22 Sudoeste 0 -- -- 78
2019-09-08 05:00:00 18.8 12 Sur 20 Sur 0 -- -- 71
2019-09-08 04:00:00 19.1 11 Sur 17 Sur 0 -- -- 69
2019-09-08 03:00:00 19.3 8 Sur 17 Sur 0 -- -- 68
2019-09-08 02:00:00 19.7 10 Sur 18 Sudeste 0 -- -- 67
2019-09-08 01:00:00 20.1 6 Sur 24 Sur 0 -- -- 66
2019-09-08 00:00:00 19.7 5 Sur 21 Sudeste 0 -- -- 65
2019-09-07 23:00:00 20.6 12 Sudeste 24 Sudeste 0 -- -- 61
2019-09-07 22:00:00 21.7 12 Sudeste 23 Sudeste 0 -- -- 55
2019-09-07 21:00:00 22.8 18 Este 35 Este 0 -- -- 50
2019-09-07 20:00:00 24.4 27 Este 37 Este 0 -- -- 44
2019-09-07 19:00:00 25.8 25 Este 33 Este 0 -- -- 41
2019-09-07 18:00:00 27.3 9 Norte 19 Nordeste 0 -- -- 30
2019-09-07 17:00:00 28.9 6 Noroeste 12 Nordeste 0 -- -- 27
2019-09-07 16:00:00 27.2 5 Noroeste 18 Noroeste 0 -- -- 27
2019-09-07 15:00:00 28.1 9 Noroeste 21 Norte 0 -- -- 27
2019-09-07 14:00:00 27.1 6 Este 15 Sudoeste 0 -- -- 36
2019-09-07 13:00:00 26.4 5 Oeste 16 Sudoeste 0 -- -- 43
2019-09-07 12:00:00 24.8 8 Sudoeste 18 Sudoeste 0 -- -- 49
2019-09-07 11:00:00 22.3 10 Sur 20 Sur 0 -- -- 57
2019-09-07 10:00:00 20.2 6 Sur 14 Sudeste 0 -- -- 65
2019-09-07 09:00:00 17.4 5 Sudeste 11 Sudeste 0 -- -- 76
2019-09-07 08:00:00 15.5 8 Sudeste 11 Sudeste 0 -- -- 80
2019-09-07 07:00:00 16.1 6 Sudeste 11 Sudeste 0 -- -- 78
2019-09-07 06:00:00 16.1 7 Sudeste 12 Sudeste 0 -- -- 76
2019-09-07 05:00:00 16.8 7 Sudeste 14 Sur 0 -- -- 77
2019-09-07 04:00:00 17.2 8 Sudeste 13 Sudeste 0 -- -- 75
2019-09-07 03:00:00 16.8 5 Sudeste 12 Sudeste 0 -- -- 73
2019-09-07 02:00:00 17.3 9 Sudeste 15 Sudeste 0 -- -- 70
2019-09-07 01:00:00 18.2 15 Este 23 Este 0 -- -- 66
2019-09-07 00:00:00 19.4 19 Este 25 Este 0 -- -- 59
2019-09-06 23:00:00 20.1 19 Este 26 Este 0 -- -- 37
2019-09-06 22:00:00 20.4 13 Nordeste 15 Este 0 -- -- 37
2019-09-06 21:00:00 22.4 9 Nordeste 15 Norte 0 -- -- 34
2019-09-06 20:00:00 25 9 Nordeste 19 Nordeste 0 -- -- 30
2019-09-06 19:00:00 26.1 10 Nordeste 22 Noroeste 0 -- -- 27
2019-09-06 18:00:00 27.1 11 Noroeste 24 Noroeste 0 -- -- 28
2019-09-06 17:00:00 26.6 12 Nordeste 24 Nordeste 0 -- -- 31
2019-09-06 16:00:00 26.7 13 Norte 23 Norte 0 -- -- 32
2019-09-06 15:00:00 26.3 13 Norte 21 Norte 0 -- -- 32
2019-09-06 14:00:00 25.4 10 Noroeste 19 Noroeste 0 -- -- 36
2019-09-06 13:00:00 24.1 4 Nordeste 15 Nordeste 0 -- -- 40
2019-09-06 12:00:00 22.2 9 Nordeste 16 Nordeste 0 -- -- 54
2019-09-06 11:00:00 19.2 8 Nordeste 13 Norte 0 -- -- 62
2019-09-06 10:00:00 16.6 7 Nordeste 11 Nordeste 0 -- -- 70
2019-09-06 09:00:00 14.3 3 Sur 14 Nordeste 0 -- -- 65
2019-09-06 08:00:00 12 10 Nordeste 13 Nordeste 0 -- -- 68
2019-09-06 07:00:00 13.1 4 Norte 6 Norte 0 -- -- 56
2019-09-06 06:00:00 13.7 2 Norte 8 Nordeste 0 -- -- 56
2019-09-06 05:00:00 13.7 6 Norte 9 Norte 0 -- -- 49
2019-09-06 04:00:00 15 4 Norte 9 Norte 0 -- -- 43
2019-09-06 03:00:00 15.7 0 Calma 21 Este 0 -- -- 40
2019-09-06 02:00:00 17.2 15 Este 34 Este 0 -- -- 48
2019-09-06 01:00:00 17.9 22 Nordeste 28 Este 0 -- -- 34
2019-09-06 00:00:00 18.8 19 Nordeste 28 Nordeste 0 -- -- 32
2019-09-05 23:00:00 20.5 17 Nordeste 23 Nordeste 0 -- -- 30
2019-09-05 22:00:00 22.2 17 Nordeste 27 Nordeste 0 -- -- 31
2019-09-05 21:00:00 24.2 21 Nordeste 35 Nordeste 0 -- -- 32
2019-09-05 20:00:00 26.6 15 Nordeste 27 Nordeste 0 -- -- 34
2019-09-05 19:00:00 27.7 18 Nordeste 34 Nordeste 0 -- -- 33
2019-09-05 18:00:00 28.3 17 Nordeste 39 Este 0 -- -- 37
2019-09-05 17:00:00 28.4 21 Nordeste 35 Este 0 -- -- 39
2019-09-05 16:00:00 28.1 13 Este 29 Este 0 -- -- 41
2019-09-05 15:00:00 28.3 18 Este 31 Nordeste 0 -- -- 43
2019-09-05 14:00:00 28 13 Nordeste 26 Este 0 -- -- 42
2019-09-05 13:00:00 27.9 10 Este 22 Sudeste 0 -- -- 42
2019-09-05 12:00:00 26.4 6 Sudeste 15 Este 0 -- -- 46
2019-09-05 11:00:00 22.5 3 Sur 11 Sur 0 -- -- 57
2019-09-05 10:00:00 20.3 4 Sur 14 Sur 0 -- -- 67
2019-09-05 09:00:00 18.5 6 Sudoeste 13 Sur 0 -- -- 71
2019-09-05 08:00:00 16.8 6 Sur 16 Sur 0 -- -- 72
2019-09-05 07:00:00 16.8 11 Sur 14 Sur 0 -- -- 68
2019-09-05 06:00:00 17.4 8 Sur 14 Sur 0 -- -- 61
2019-09-05 05:00:00 18.9 6 Este 10 Este 0 -- -- 55
2019-09-05 04:00:00 19.5 5 Nordeste 15 Norte 0 -- -- 51
2019-09-05 03:00:00 19.9 11 Sur 13 Sudeste 0 -- -- 48
2019-09-05 02:00:00 20.7 8 Sudeste 13 Sur 0 -- -- 44
2019-09-05 01:00:00 21.3 8 Sudeste 14 Sudeste 0 -- -- 41
2019-09-05 00:00:00 22.7 3 Sudeste 11 Sudoeste 0 -- -- 37
2019-09-04 23:00:00 24.4 7 Sudoeste 10 Sudoeste 0 -- -- 38
2019-09-04 22:00:00 25.8 5 Sur 15 Sudoeste 0 -- -- 38
2019-09-04 21:00:00 28 10 Sudoeste 20 Sudoeste 0 -- -- 34
2019-09-04 20:00:00 30 7 Norte 21 Norte 0 -- -- 25
2019-09-04 19:00:00 31 13 Norte 28 Noroeste 0 -- -- 24
2019-09-04 18:00:00 32 12 Noroeste 33 Noroeste 0 -- -- 22
2019-09-04 17:00:00 31.8 11 Noroeste 27 Noroeste 0 -- -- 23
2019-09-04 16:00:00 32.1 15 Oeste 27 Oeste 0 -- -- 23
2019-09-04 15:00:00 30.1 11 Norte 21 Noroeste 0 -- -- 30
2019-09-04 14:00:00 30.5 7 Sudoeste 24 Sudoeste 0 -- -- 33
2019-09-04 13:00:00 29.2 9 Sudoeste 21 Sudoeste 0 -- -- 36
2019-09-04 12:00:00 27.6 12 Oeste 22 Sudoeste 0 -- -- 39
2019-09-04 11:00:00 24.9 16 Sudoeste 27 Sudoeste 0 -- -- 50
2019-09-04 10:00:00 22.6 11 Sudoeste 19 Sudoeste 0 -- -- 56
2019-09-04 09:00:00 20.4 10 Sur 17 Sur 0 -- -- 61
2019-09-04 08:00:00 18.5 6 Sur 13 Sur 0 -- -- 63
2019-09-04 07:00:00 19.4 9 Sur 15 Sur 0 -- -- 59
2019-09-04 06:00:00 19.7 12 Sur 17 Sur 0 -- -- 58
2019-09-04 05:00:00 19.6 6 Sur 11 Sur 0 -- -- 58
2019-09-04 04:00:00 20 5 Sur 12 Sur 0 -- -- 57
2019-09-04 03:00:00 20.7 4 Sur 16 Sur 0 -- -- 56
2019-09-04 02:00:00 21.7 5 Sur 15 Sur 0 -- -- 53
2019-09-04 01:00:00 23.1 13 Sur 25 Sur 0 -- -- 49
2019-09-04 00:00:00 23.1 8 Sur 16 Sur 0 -- -- 52
2019-09-03 23:00:00 23.8 4 Sur 15 Sur 0 -- -- 52
2019-09-03 22:00:00 25.6 5 Sur 18 Sur 0 -- -- 46
2019-09-03 21:00:00 27.4 8 Sur 23 Sur 0 -- -- 41
2019-09-03 20:00:00 30.1 10 Este 18 Este 0 -- -- 31
2019-09-03 19:00:00 30.9 11 Norte 22 Nordeste 0 -- -- 28
2019-09-03 18:00:00 31 15 Nordeste 23 Norte 0 -- -- 30
2019-09-03 17:00:00 30.6 9 Norte 17 Nordeste 0 -- -- 32
2019-09-03 16:00:00 30.1 4 Norte 13 Nordeste 0 -- -- 35
2019-09-03 15:00:00 30.8 8 Oeste 19 Sur 0 -- -- 35
2019-09-03 14:00:00 30.3 8 Noroeste 17 Oeste 0 -- -- 35
2019-09-03 13:00:00 29.2 7 Oeste 19 Sudoeste 0 -- -- 39
2019-09-03 12:00:00 26.9 10 Sudoeste 20 Sudoeste 0 -- -- 45
2019-09-03 11:00:00 24.2 12 Sudoeste 22 Sur 0 -- -- 53
2019-09-03 10:00:00 22.2 12 Sur 19 Sur 0 -- -- 60
2019-09-03 09:00:00 19.8 6 Sur 12 Sur 0 -- -- 69
2019-09-03 08:00:00 17.8 6 Sur 10 Sudeste 0 -- -- 71
2019-09-03 07:00:00 18.5 6 Sur 10 Sur 0 -- -- 67
2019-09-03 06:00:00 18.6 6 Sur 10 Sur 0 -- -- 68
2019-09-03 05:00:00 19 6 Sur 12 Sur 0 -- -- 66
2019-09-03 04:00:00 19.2 8 Sur 12 Sur 0 -- -- 64
2019-09-03 03:00:00 20 9 Sur 13 Sudeste 0 -- -- 62
2019-09-03 02:00:00 20.1 6 Sudeste 11 Sudeste 0 -- -- 60
2019-09-03 01:00:00 20.2 7 Sudeste 13 Sur 0 -- -- 58
2019-09-03 00:00:00 20.2 8 Sur 14 Sudeste 0 -- -- 57
2019-09-02 23:00:00 22.3 6 Sur 11 Sur 0 -- -- 52
2019-09-02 22:00:00 23 4 Norte 5 Norte 0 -- -- 46
2019-09-02 21:00:00 23.7 2 Sudeste 10 Sur 0 -- -- 43
2019-09-02 20:00:00 25.6 5 Sur 17 Sur 0 -- -- 40
2019-09-02 19:00:00 25.3 7 Sur 39 Este 0 -- -- 41
2019-09-02 18:00:00 24.4 22 Sudeste 42 Sudeste 0 -- -- 46
2019-09-02 17:00:00 25.4 17 Sudeste 37 Sudeste -- -- -- 48
2019-09-02 16:00:00 28.5 16 Sur 32 Sur 0 -- -- 37
2019-09-02 15:00:00 30.8 3 Norte 19 Sur 0 -- -- 33
2019-09-02 14:00:00 31.3 8 Sudoeste 23 Sudoeste 0 -- -- 34
2019-09-02 13:00:00 29.8 13 Sudoeste 24 Sudoeste 0 -- -- 37
2019-09-02 12:00:00 28.2 13 Sudoeste 22 Sudoeste 0 -- -- 40
2019-09-02 11:00:00 26.1 12 Sudoeste 23 Sur 0 -- -- 47
2019-09-02 10:00:00 23.4 11 Sur 19 Sur 0 -- -- 54
2019-09-02 09:00:00 21 6 Sur 15 Sur 0 -- -- 62
2019-09-02 08:00:00 19.9 8 Sur 18 Sur 0 -- -- 63
2019-09-02 07:00:00 20.9 12 Sur 20 Sur 0 -- -- 60
2019-09-02 06:00:00 21.3 11 Sur 21 Sur 0 -- -- 57
2019-09-02 05:00:00 21.9 13 Sur 19 Sur 0 -- -- 54
2019-09-02 04:00:00 22.5 8 Sur 20 Sur 0 -- -- 51
2019-09-02 03:00:00 23.8 14 Sur 22 Sur 0 -- -- 45
2019-09-02 02:00:00 24.7 12 Sur 19 Sur 0 -- -- 43
2019-09-02 01:00:00 25.8 7 Sur 9 Sudoeste 0 -- -- 41
2019-09-02 00:00:00 26.5 4 Sudoeste 12 Norte 0 -- -- 38
2019-09-01 23:00:00 26 9 Nordeste 14 Nordeste 0 -- -- 43
2019-09-01 22:00:00 27 5 Sur 10 Sudoeste 0 -- -- 37
2019-09-01 21:00:00 27.7 9 Sudoeste 16 Oeste 0 -- -- 34
2019-09-01 20:00:00 28.8 14 Oeste 36 Sudoeste 0 -- -- 32
2019-09-01 19:00:00 31.7 17 Sudoeste 27 Oeste 0 -- -- 29
2019-09-01 18:00:00 33.3 10 Sudoeste 24 Sur 0 -- -- 26
2019-09-01 17:00:00 33.2 9 Sur 30 Sudoeste 0 -- -- 28
2019-09-01 16:00:00 31.8 14 Sudoeste 37 Sudoeste 0 -- -- 29
2019-09-01 15:00:00 32.1 8 Sudoeste 22 Sudoeste 0 -- -- 28
2019-09-01 14:00:00 31.3 9 Sudoeste 21 Sudoeste 0 -- -- 33
2019-09-01 13:00:00 29.3 12 Sudoeste 22 Sudoeste 0 -- -- 37
2019-09-01 12:00:00 27.6 14 Sudoeste 26 Sudoeste 0 -- -- 42
2019-09-01 11:00:00 24.8 12 Sudoeste 33 Sur 0 -- -- 52
2019-09-01 10:00:00 22.5 14 Sur 28 Sur 0 -- -- 59
2019-09-01 09:00:00 20.7 13 Sur 21 Sur 0 -- -- 64
2019-09-01 08:00:00 18.5 8 Sur 19 Sur 0 -- -- 70
2019-09-01 07:00:00 18.6 6 Sur 14 Sur 0 -- -- 68
2019-09-01 06:00:00 19.3 5 Sur 15 Sur 0 -- -- 63
2019-09-01 05:00:00 19.7 5 Sur 15 Sur 0 -- -- 58
2019-09-01 04:00:00 20.1 6 Sur 13 Sur 0 -- -- 55
2019-09-01 03:00:00 20.4 5 Sur 10 Sur 0 -- -- 54
2019-09-01 02:00:00 21.1 8 Sur 12 Sudeste 0 -- -- 50
2019-09-01 01:00:00 21.9 8 Sudeste 13 Sudeste 0 -- -- 48
2019-09-01 00:00:00 22.5 9 Sudeste 20 Este 0 -- -- 46
2019-08-31 23:00:00 24.3 17 Este 20 Este 0 -- -- 41
2019-08-31 22:00:00 25.4 9 Nordeste 12 Nordeste 0 -- -- 38
2019-08-31 21:00:00 27.8 3 Norte 10 Nordeste 0 -- -- 31
2019-08-31 20:00:00 29.8 6 Norte 14 Norte 0 -- -- 28
2019-08-31 19:00:00 30.4 6 Nordeste 19 Noroeste 0 -- -- 27
2019-08-31 18:00:00 31.5 8 Norte 17 Noroeste 0 -- -- 27
2019-08-31 17:00:00 31.5 7 Noroeste 17 Oeste 0 -- -- 27
2019-08-31 16:00:00 31.2 3 Noroeste 20 Sudoeste 0 -- -- 28
2019-08-31 15:00:00 30.1 10 Este 20 Sur 0 -- -- 30
2019-08-31 14:00:00 29.5 6 Oeste 14 Oeste 0 -- -- 33
2019-08-31 13:00:00 28.1 4 Norte 14 Sudoeste 0 -- -- 36
2019-08-31 12:00:00 26.7 6 Sudoeste 13 Sudoeste 0 -- -- 40
2019-08-31 11:00:00 23.9 4 Sur 12 Sur 0 -- -- 49
2019-08-31 10:00:00 21.6 4 Sur 8 Sudeste 0 -- -- 59
2019-08-31 09:00:00 19.2 5 Sudeste 10 Sudeste 0 -- -- 66
2019-08-31 08:00:00 16.6 6 Sudeste 10 Sudeste 0 -- -- 69
2019-08-31 07:00:00 16.6 6 Sudeste 9 Sudeste 0 -- -- 69
2019-08-31 06:00:00 17 7 Sur 12 Oeste 0 -- -- 74
2019-08-31 05:00:00 17.3 6 Sudeste 9 Sudeste 0 -- -- 65
2019-08-31 04:00:00 17.4 6 Sudeste 15 Este 0 -- -- 69
2019-08-31 03:00:00 18.2 5 Este 11 Sudeste 0 -- -- 71
2019-08-31 02:00:00 18.3 6 Sudeste 15 Sur 0 -- -- 73
2019-08-31 01:00:00 18.3 6 Sudeste 16 Sur 0 -- -- 74
2019-08-31 00:00:00 19.4 4 Nordeste 23 Sur 0 -- -- 74
2019-08-30 23:00:00 21 10 Sudoeste 27 Sudoeste 0 -- -- 67
2019-08-30 22:00:00 20.2 11 Sudeste 46 Este 0.6 -- -- 67
2019-08-30 21:00:00 20.9 33 Este 76 Este 0.6 -- -- 67
2019-08-30 20:00:00 24.4 35 Este 54 Nordeste 0 -- -- 46
2019-08-30 19:00:00 29 21 Este 31 Este 0 -- -- 31
2019-08-30 18:00:00 31.2 10 Este 19 Este 0 -- -- 26
2019-08-30 17:00:00 33.4 7 Noroeste 19 Este 0 -- -- 24
2019-08-30 16:00:00 33.3 6 Sur 18 Sudoeste 0 -- -- 24
2019-08-30 15:00:00 32.7 7 Sudeste 19 Sudeste 0 -- -- 27
2019-08-30 14:00:00 31.1 6 Nordeste 14 Sudoeste 0 -- -- 31
2019-08-30 13:00:00 30 4 Oeste 13 Sur 0 -- -- 33
2019-08-30 12:00:00 28.3 8 Sur 18 Sudoeste 0 -- -- 39
2019-08-30 11:00:00 25.2 11 Sur 18 Sur 0 -- -- 46
2019-08-30 10:00:00 22.5 9 Sur 17 Sur 0 -- -- 54
2019-08-30 09:00:00 20.1 5 Sur 10 Sur 0 -- -- 66
2019-08-30 08:00:00 17.8 6 Sur 12 Sudeste 0 -- -- 66
2019-08-30 07:00:00 18.2 6 Sur 13 Sur 0 -- -- 64
2019-08-30 06:00:00 18.8 8 Sur 13 Sur 0 -- -- 62
2019-08-30 05:00:00 19.2 6 Sur 11 Sur 0 -- -- 63
2019-08-30 04:00:00 19.8 5 Sur 12 Sur 0 -- -- 61
2019-08-30 03:00:00 20.3 6 Sur 14 Sur 0 -- -- 59
2019-08-30 02:00:00 20.9 7 Sur 14 Sur 0 -- -- 58
2019-08-30 01:00:00 21.7 6 Sur 16 Sur 0 -- -- 57
2019-08-30 00:00:00 22.5 9 Sur 16 Sudeste 0 -- -- 56
2019-08-29 23:00:00 23.3 8 Sur 17 Sur 0 -- -- 54
2019-08-29 22:00:00 25 8 Sudeste 18 Sudeste 0 -- -- 47
2019-08-29 21:00:00 27.8 6 Nordeste 10 Nordeste 0 -- -- 36
2019-08-29 20:00:00 30.1 5 Nordeste 12 Norte 0 -- -- 30
2019-08-29 19:00:00 30.6 6 Nordeste 15 Nordeste 0 -- -- 28
2019-08-29 18:00:00 31.3 8 Norte 19 Oeste 0 -- -- 28
2019-08-29 17:00:00 31.7 3 Sur 14 Norte 0 -- -- 29
2019-08-29 16:00:00 30.2 7 Norte 17 Norte 0 -- -- 32
2019-08-29 15:00:00 29.9 10 Nordeste 18 Norte 0 -- -- 35
2019-08-29 14:00:00 29.1 8 Norte 15 Nordeste 0 -- -- 37
2019-08-29 13:00:00 29 7 Oeste 17 Oeste 0 -- -- 37
2019-08-29 12:00:00 26.1 7 Sudoeste 22 Sudoeste 0 -- -- 45
2019-08-29 11:00:00 24.2 10 Sudoeste 20 Sur 0 -- -- 52
2019-08-29 10:00:00 22.9 8 Sur 17 Sur 0 -- -- 60
2019-08-29 09:00:00 20.4 6 Sur 12 Sur 0 -- -- 69
2019-08-29 08:00:00 18.1 6 Sur 12 Sur 0 -- -- 74
2019-08-29 07:00:00 18.3 8 Sur 13 Sur 0 -- -- 73
2019-08-29 06:00:00 18.8 10 Sur 12 Sur 0 -- -- 71
2019-08-29 05:00:00 19.2 4 Sur 12 Sur 0 -- -- 69
2019-08-29 04:00:00 19.8 9 Sur 13 Sur 0 -- -- 67
2019-08-29 03:00:00 20.2 8 Sur 13 Sur 0 -- -- 65
2019-08-29 02:00:00 20.7 8 Sudeste 18 Sudeste 0 -- -- 60
2019-08-29 01:00:00 21.4 13 Sudeste 21 Sudeste 0 -- -- 56
2019-08-29 00:00:00 21.9 12 Sudeste 27 Este 0 -- -- 49
2019-08-28 23:00:00 22.2 21 Este 31 Este 0 -- -- 50
2019-08-28 22:00:00 23.7 17 Este 20 Este 0 -- -- 45
2019-08-28 21:00:00 26.1 6 Nordeste 9 Este 0 -- -- 42
2019-08-28 20:00:00 28 4 Nordeste 13 Nordeste 0 -- -- 35
2019-08-28 19:00:00 28.8 4 Nordeste 15 Norte -- -- -- 33
2019-08-28 18:00:00 29 6 Este 14 Este 0 -- -- 34
2019-08-28 17:00:00 29.2 6 Noroeste 14 Nordeste 0 -- -- 32
2019-08-28 16:00:00 28.3 8 Nordeste 17 Nordeste 0 -- -- 35
2019-08-28 15:00:00 28.1 4 Oeste 17 Este 0 -- -- 35
2019-08-28 14:00:00 26.8 9 Nordeste 14 Norte 0 -- -- 39
2019-08-28 13:00:00 26.2 5 Norte 13 Norte 0 -- -- 41
2019-08-28 12:00:00 25 4 Sudeste 9 Este 0 -- -- 48
2019-08-28 11:00:00 21.9 5 Sur 13 Sur 0 -- -- 58
2019-08-28 10:00:00 19.7 8 Sur 14 Sur 0 -- -- 68
2019-08-28 09:00:00 18.1 4 Sur 10 Sudeste 0 -- -- 75
2019-08-28 08:00:00 15.9 6 Sudeste -- -- -- -- -- 77
2019-08-28 07:00:00 -- -- -- -- -- -- -- -- --
2019-08-28 06:00:00 -- -- -- -- -- -- -- -- --
2019-08-28 05:00:00 -- -- -- -- -- -- -- -- --
2019-08-28 04:00:00 -- -- -- -- -- -- -- -- --
2019-08-28 03:00:00 -- -- -- -- -- -- -- -- --
2019-08-28 02:00:00 -- -- -- -- -- -- -- -- --
2019-08-28 01:00:00 -- -- -- -- -- -- -- -- --
2019-08-28 00:00:00 -- -- -- -- -- -- -- -- --
2019-08-27 23:00:00 -- -- -- -- -- -- -- -- --
2019-08-27 22:00:00 21.4 6 Sudeste 10 Este 0 -- -- 50
2019-08-27 21:00:00 22.7 7 Este 10 Este 0 -- -- 50
2019-08-27 20:00:00 23.9 4 Este 11 Sur 0 -- -- 51
2019-08-27 19:00:00 24.5 6 Sur 17 Sudoeste 0 -- -- 49
2019-08-27 18:00:00 25 14 Sudoeste 23 Sudoeste 0 -- -- 46
2019-08-27 17:00:00 25.6 10 Oeste 22 Oeste 0 -- -- 44
2019-08-27 16:00:00 25.9 12 Noroeste 22 Norte 0 -- -- 39
2019-08-27 15:00:00 25.3 9 Noroeste 22 Noroeste 0 -- -- 39
2019-08-27 14:00:00 24.3 13 Noroeste 23 Oeste 0 -- -- 43
2019-08-27 13:00:00 22.8 10 Noroeste 20 Oeste 0 -- -- 52
2019-08-27 12:00:00 20.8 12 Oeste 18 Oeste 0 -- -- 62
2019-08-27 11:00:00 18.7 7 Oeste 16 Sudoeste 0 -- -- 78
2019-08-27 10:00:00 17.2 9 Sudoeste 15 Sudoeste 0 -- -- 86
2019-08-27 09:00:00 15.9 7 Sur 13 Sur 0 -- -- 90
2019-08-27 08:00:00 15 9 Sur 16 Sur 0 -- -- 92
2019-08-27 07:00:00 14.6 3 Sur 10 Sur 0 -- -- 91
2019-08-27 06:00:00 14.5 3 Sur 11 Sudeste 0 -- -- 90
2019-08-27 05:00:00 14.1 6 Sur 10 Sur 0 -- -- 91
2019-08-27 04:00:00 14.1 5 Sur 9 Sudeste 0 -- -- 93
2019-08-27 03:00:00 14.2 3 Sur 13 Sudeste 0 -- -- 93
2019-08-27 02:00:00 14.6 8 Sudeste 13 Sur 0 -- -- 91
2019-08-27 01:00:00 15.7 2 Oeste 15 Nordeste 0 -- -- 87
2019-08-27 00:00:00 15.3 13 Este 32 Este 0 -- -- 85
2019-08-26 23:00:00 16.4 3 Noroeste 51 Sudoeste 5.6 -- -- 74
2019-08-26 22:00:00 16.9 14 Sudeste 22 Este 1.6 -- -- 86
2019-08-26 21:00:00 14.8 10 Sudeste 54 Sur 13.8 -- -- 88
2019-08-26 20:00:00 25.1 13 Sudeste 39 Sur 0 -- -- 50
2019-08-26 19:00:00 28.9 13 Sudoeste 24 Sur 0 -- -- 36
2019-08-26 18:00:00 29.6 12 Sur 23 Sudoeste 0 -- -- 36
2019-08-26 17:00:00 30.8 10 Sur 23 Sur 0 -- -- 35
2019-08-26 16:00:00 29.2 10 Sudoeste 24 Sur 0 -- -- 36
2019-08-26 15:00:00 29 6 Sudeste 18 Sudoeste 0 -- -- 37
2019-08-26 14:00:00 28.7 8 Sur 21 Sudeste 0 -- -- 40
2019-08-26 13:00:00 26.3 6 Sur 16 Sur 0 -- -- 41
2019-08-26 12:00:00 24.5 5 Sur 14 Sudoeste 0 -- -- 46
2019-08-26 11:00:00 22.3 4 Noroeste 11 Sudoeste 0 -- -- 57
2019-08-26 10:00:00 20.9 7 Sudoeste 12 Oeste 0 -- -- 55
2019-08-26 09:00:00 19 9 Oeste 14 Oeste 0 -- -- 55
2019-08-26 08:00:00 18.3 9 Este 14 Este 0 -- -- 56
2019-08-26 07:00:00 19 8 Sur 21 Sudeste 0 -- -- 55
2019-08-26 06:00:00 18.6 5 Sudeste 13 Sudeste 0 -- -- 55
2019-08-26 05:00:00 19 7 Sur 11 Sudeste 0 -- -- 51
2019-08-26 04:00:00 20.1 4 Sur 17 Sur 0 -- -- 48
2019-08-26 03:00:00 20.3 9 Sudeste 14 Sur 0 -- -- 49
2019-08-26 02:00:00 20.7 8 Sur 24 Sur 0 -- -- 47
2019-08-26 01:00:00 21 7 Sur 21 Sur 0 -- -- 46
2019-08-26 00:00:00 21.5 8 Sudeste 21 Sur 0 -- -- 45
2019-08-25 23:00:00 22 13 Sudeste 23 Sudeste 0 -- -- 45
2019-08-25 22:00:00 23.5 13 Sudeste 31 Sudeste 0 -- -- 42
2019-08-25 21:00:00 25.5 17 Sudeste 39 Este 0 -- -- 36
2019-08-25 20:00:00 28.4 24 Sudeste 40 Este 0 -- -- 28
2019-08-25 19:00:00 30.4 22 Este 41 Este 0 -- -- 25
2019-08-25 18:00:00 31.7 5 Sudeste 35 Este 0 -- -- 23
2019-08-25 17:00:00 31.5 9 Nordeste 42 Este 0 -- -- 23
2019-08-25 16:00:00 31.3 15 Este 26 Este 0 -- -- 23
2019-08-25 15:00:00 30.8 12 Este 25 Este 0 -- -- 24
2019-08-25 14:00:00 31.1 7 Este 28 Este 0 -- -- 24
2019-08-25 13:00:00 29.2 10 Nordeste 20 Este 0 -- -- 28
2019-08-25 12:00:00 28.8 6 Sur 16 Sur 0 -- -- 35
2019-08-25 11:00:00 26.1 6 Sur 16 Sur 0 -- -- 42
2019-08-25 10:00:00 23.5 6 Sudeste 14 Sudeste 0 -- -- 50
2019-08-25 09:00:00 20.2 4 Sudeste 10 Sudeste 0 -- -- 58
2019-08-25 08:00:00 17.7 6 Sudeste 9 Sur 0 -- -- 65
2019-08-25 07:00:00 17.7 7 Sur 10 Sur 0 -- -- 64
2019-08-25 06:00:00 18.2 6 Sur 12 Sudeste 0 -- -- 61
2019-08-25 05:00:00 18.1 9 Sur 13 Sur 0 -- -- 59
2019-08-25 04:00:00 18.6 6 Sur 15 Sur 0 -- -- 56
2019-08-25 03:00:00 19.6 7 Sur 14 Sudeste 0 -- -- 53
2019-08-25 02:00:00 19.8 5 Sur 10 Sur 0 -- -- 49
2019-08-25 01:00:00 20.6 5 Sur 13 Sudeste 0 -- -- 46
2019-08-25 00:00:00 21.5 8 Sudeste 18 Sudeste 0 -- -- 42
2019-08-24 23:00:00 23.1 13 Sudeste 31 Este 0 -- -- 34
2019-08-24 22:00:00 25 21 Este 26 Este 0 -- -- 30
2019-08-24 21:00:00 26.8 20 Este 28 Este 0 -- -- 27
2019-08-24 20:00:00 29.7 21 Este 30 Este 0 -- -- 22
2019-08-24 19:00:00 31.3 18 Este 29 Este 0 -- -- 20
2019-08-24 18:00:00 31.7 13 Este 29 Este 0 -- -- 20
2019-08-24 17:00:00 31.8 12 Este 31 Este 0 -- -- 20
2019-08-24 16:00:00 31.9 17 Este 33 Sudeste 0 -- -- 21
2019-08-24 15:00:00 31.8 9 Sudeste 31 Este 0 -- -- 21
2019-08-24 14:00:00 30.7 14 Este 31 Este 0 -- -- 22
2019-08-24 13:00:00 30 12 Este 24 Este 0 -- -- 26
2019-08-24 12:00:00 28.8 6 Sur 15 Sur 0 -- -- 26
2019-08-24 11:00:00 25.6 3 Este 10 Sur 0 -- -- 35
2019-08-24 10:00:00 22.4 5 Sur 10 Sur 0 -- -- 45
2019-08-24 09:00:00 20.3 4 Sudeste 10 Sur 0 -- -- 53
2019-08-24 08:00:00 16.5 8 Sur 12 Sudeste 0 -- -- 63
2019-08-24 07:00:00 16.7 6 Sur 15 Sur 0 -- -- 61
2019-08-24 06:00:00 16.8 8 Sur 12 Sur 0 -- -- 59
2019-08-24 05:00:00 17.2 7 Sudeste 17 Este 0 -- -- 57
2019-08-24 04:00:00 17.3 14 Sudeste -- -- -- -- -- 60
2019-08-24 03:00:00 17.8 5 Sudeste 12 Sur 0 -- -- 54
2019-08-24 02:00:00 18.4 8 Sur 15 Sudeste 0 -- -- 53
2019-08-24 01:00:00 19.9 12 Sudeste 20 Sudeste 0 -- -- 49
2019-08-24 00:00:00 20.7 10 Sudeste 20 Sudeste 0 -- -- 47
2019-08-23 23:00:00 21.9 13 Sudeste 30 Este 0 -- -- 44
2019-08-23 22:00:00 23.2 21 Este 32 Este 0 -- -- 42
2019-08-23 21:00:00 25.4 22 Este 31 Este 0 -- -- 33
2019-08-23 20:00:00 28.4 23 Este 31 Este 0 -- -- 29
2019-08-23 19:00:00 30.8 10 Nordeste 14 Nordeste 0 -- -- 20
2019-08-23 18:00:00 32.4 6 Oeste 14 Este 0 -- -- 18
2019-08-23 17:00:00 31.8 9 Norte 21 Sudoeste 0 -- -- 18
2019-08-23 16:00:00 31.9 8 Noroeste 19 Noroeste 0 -- -- 19
2019-08-23 15:00:00 31.5 8 Oeste 19 Oeste 0 -- -- 17
2019-08-23 14:00:00 30.1 7 Este 14 Este 0 -- -- 20
2019-08-23 13:00:00 29.2 6 Noroeste 15 Nordeste 0 -- -- 22
2019-08-23 12:00:00 28 5 Sudeste 13 Norte 0 -- -- 25
2019-08-23 11:00:00 25.5 6 Sudeste 18 Este 0 -- -- 31
2019-08-23 10:00:00 22.1 14 Este 23 Este 0 -- -- 44
2019-08-23 09:00:00 18.4 18 Este 26 Este 0 -- -- 55
2019-08-23 08:00:00 15.7 17 Este -- -- -- -- -- 63
2019-08-23 07:00:00 -- -- -- -- -- -- -- -- --
2019-08-23 06:00:00 -- -- -- -- -- -- -- -- --
2019-08-23 05:00:00 -- -- -- -- -- -- -- -- --
2019-08-23 04:00:00 -- -- -- -- -- -- -- -- --
2019-08-23 03:00:00 -- -- -- -- -- -- -- -- --
2019-08-23 02:00:00 -- -- -- -- -- -- -- -- --
2019-08-23 01:00:00 -- -- -- -- -- -- -- -- --
2019-08-23 00:00:00 -- -- -- -- -- -- -- -- --
2019-08-22 23:00:00 -- -- -- -- -- -- -- -- --
2019-08-22 22:00:00 -- -- -- -- -- -- -- -- --
2019-08-22 21:00:00 -- -- -- -- -- -- -- -- --
2019-08-22 20:00:00 -- -- -- -- -- -- -- -- --
2019-08-22 19:00:00 -- -- -- -- -- -- -- -- --
2019-08-22 18:00:00 -- -- -- -- -- -- -- -- --
2019-08-22 17:00:00 -- -- -- -- -- -- -- -- --
2019-08-22 16:00:00 -- -- -- -- -- -- -- -- --
2019-08-22 15:00:00 -- -- -- -- -- -- -- -- --
2019-08-22 14:00:00 28.1 17 Este 26 Este 0 -- -- 35
2019-08-22 13:00:00 26.8 17 Este 27 Este 0 -- -- 38
2019-08-22 12:00:00 24.9 20 Este 31 Este 0 -- -- 51
2019-08-22 11:00:00 22.9 22 Este 28 Este 0 -- -- 61
2019-08-22 10:00:00 20.7 13 Este 17 Este 0 -- -- 73
2019-08-22 09:00:00 19.5 2 Sudeste 12 Este 0 -- -- 75
2019-08-22 08:00:00 16.9 9 Este -- -- -- -- -- 80
2019-08-22 07:00:00 -- -- -- -- -- -- -- -- --
2019-08-22 06:00:00 15.8 7 Sudeste 19 Este 0 -- -- 87
2019-08-22 05:00:00 16.2 6 Sudeste 14 Este 0 -- -- 87
2019-08-22 04:00:00 16.6 10 Sudeste 18 Este 0 -- -- 87
2019-08-22 03:00:00 16.8 6 Sudeste 34 Este 0 -- -- 88
2019-08-22 02:00:00 17.2 28 Este 41 Este 0 -- -- 91
2019-08-22 01:00:00 17.6 30 Este 48 Este 0 -- -- 90
2019-08-22 00:00:00 18.1 31 Este 40 Este 0 -- -- 89
2019-08-21 23:00:00 18.2 26 Este 51 Este 0 -- -- 90
2019-08-21 22:00:00 20 25 Este 31 Este 0 -- -- 83
2019-08-21 21:00:00 20.8 15 Sudeste 30 Este 0 -- -- 78
2019-08-21 20:00:00 22 18 Sudeste 39 Este 0 -- -- 74
2019-08-21 19:00:00 22.8 27 Este 44 Este 0 -- -- 71
2019-08-21 18:00:00 22.4 32 Este 41 Este 0 -- -- 68
2019-08-21 17:00:00 18.8 27 Nordeste 46 Nordeste 0 -- -- 76
2019-08-21 16:00:00 22.1 26 Este 36 Este 0 -- -- 71
2019-08-21 15:00:00 20.1 18 Sur 55 Sudoeste 14.2 -- -- 79
2019-08-21 14:00:00 27.7 6 Sudeste 20 Sudeste 0 -- -- 47
2019-08-21 13:00:00 28.4 6 Sudeste 18 Este 0 -- -- 47
2019-08-21 12:00:00 27 4 Sur 18 Sur 0 -- -- 51
2019-08-21 11:00:00 25 5 Sudeste 14 Sudoeste 0 -- -- 58
2019-08-21 10:00:00 22.8 4 Sur 13 Sur 0 -- -- 65
2019-08-21 09:00:00 20.3 6 Sudeste 17 Este 0 -- -- 74
2019-08-21 08:00:00 18.1 13 Este 17 Este 0 -- -- 83
2019-08-21 07:00:00 17.9 6 Sudeste 12 Sudeste 0 -- -- 79
2019-08-21 06:00:00 18.5 6 Sudeste 18 Sur 0 -- -- 76
2019-08-21 05:00:00 19 10 Sudeste 18 Sudeste 0 -- -- 78
2019-08-21 04:00:00 19.8 8 Sudeste 32 Sudeste 0 -- -- 76
2019-08-21 03:00:00 20.2 16 Sudeste 31 Sur 0 -- -- 75
2019-08-21 02:00:00 20.4 16 Sudeste 31 Sudeste 0 -- -- 74
2019-08-21 01:00:00 21 14 Sudeste 28 Este 0 -- -- 71
2019-08-21 00:00:00 21.6 14 Sudeste 28 Sudeste 0 -- -- 68